Yalta, Ukraine
Current Conditions -  °F | °C
As of 7:30 PM on Saturday 22 Nov 2014 (Local Time) from URFF Reporting Station
Few Clouds Few Clouds  
Wind Chill: 21°   Ceiling: Unl
Heat Index: 32°   Visibility: 6mi
Dew Point: 27°   Wind: 16mph
Humidity: 80%   Direction: 50°NE
Pressure: 30.18"   Gusts: NA
Location:  45.48°N, 34.17°E
Report Text: URFF 221630Z 05007MPS 9999 FEW019 M00/M03 Q1022 01010065 NOSIG
Loading
Personal Weather Stations






























Interactive Weather Map New forecast layout! Learn more

10-Day Weather Forecast

Advertisements
Track Severe Weather on mobile